Time;durP1;ratioP1;P1;durP2;ratioP2;P2;SDS_P1;SDS_P2;PMS_P1;PMS_P2;Temp;Humidity;BMP_temperature;BMP_pressure;BME280_temperature;BME280_humidity;BME280_pressure;Samples;Min_cycle;Max_cycle;Signal;HPM_P1;HPM_P2
2023/09/30 00:01:15;;;;;;;16.02;8.07;;;;;;;19.77;100.00;100524.69;5075956;28;20461;-77
2023/09/30 00:03:40;;;;;;;12.77;8.05;;;;;;;19.79;100.00;100534.41;5093392;28;20043;-78
2023/09/30 00:06:07;;;;;;;15.23;8.45;;;;;;;19.75;100.00;100533.19;5075573;28;20122;-79
2023/09/30 00:08:32;;;;;;;11.00;9.65;;;;;;;19.76;100.00;100541.31;5092053;28;20043;-79
2023/09/30 00:10:59;;;;;;;16.10;8.27;;;;;;;19.74;100.00;100540.31;5097989;28;20051;-79
2023/09/30 00:13:26;;;;;;;16.48;8.43;;;;;;;19.69;100.00;100530.38;5104841;28;20115;-78
2023/09/30 00:15:53;;;;;;;22.92;8.93;;;;;;;19.67;100.00;100532.22;5088727;28;20481;-78
2023/09/30 00:18:19;;;;;;;14.80;9.38;;;;;;;19.70;100.00;100534.84;5105201;28;20024;-79
2023/09/30 00:20:45;;;;;;;14.10;8.88;;;;;;;19.70;100.00;100537.75;5093773;28;20044;-78
2023/09/30 00:23:11;;;;;;;15.55;9.40;;;;;;;19.70;100.00;100542.75;5075630;28;20039;-77
2023/09/30 00:25:39;;;;;;;19.17;8.77;;;;;;;19.66;100.00;100542.28;5093893;28;20099;-79
2023/09/30 00:28:06;;;;;;;14.98;9.38;;;;;;;19.63;100.00;100538.38;5076132;28;20043;-79
2023/09/30 00:30:34;;;;;;;16.98;8.35;;;;;;;19.64;100.00;100542.84;5076198;28;20081;-79
2023/09/30 00:33:00;;;;;;;22.50;9.55;;;;;;;19.68;100.00;100542.50;5093997;28;20038;-77
2023/09/30 00:35:26;;;;;;;27.65;9.00;;;;;;;19.70;100.00;100548.56;5094119;28;20028;-78
2023/09/30 00:37:53;;;;;;;13.27;9.48;;;;;;;19.70;100.00;100552.25;5093547;28;20086;-78
2023/09/30 00:40:27;;;;;;;18.17;9.27;;;;;;;19.70;100.00;100549.34;5093842;28;20035;-78
2023/09/30 00:42:52;;;;;;;12.77;8.68;;;;;;;19.70;100.00;100549.34;5093926;28;20473;-78
2023/09/30 00:45:18;;;;;;;20.55;9.15;;;;;;;19.61;100.00;100534.47;5093789;28;20027;-79
2023/09/30 00:47:44;;;;;;;14.38;8.82;;;;;;;19.66;100.00;100537.25;5094125;28;20056;-78
2023/09/30 00:50:13;;;;;;;15.77;8.30;;;;;;;19.70;100.00;100549.34;5094140;28;20061;-77
2023/09/30 00:52:39;;;;;;;19.10;8.00;;;;;;;19.65;100.00;100547.31;5093611;28;20024;-76
2023/09/30 00:55:09;;;;;;;13.60;8.25;;;;;;;19.70;100.00;100555.13;5055701;28;20043;-77
2023/09/30 00:57:44;;;;;;;15.13;8.65;;;;;;;19.62;100.00;100548.38;5055646;28;20037;-78
2023/09/30 01:00:11;;;;;;;20.50;9.82;;;;;;;19.67;100.00;100556.22;5072318;28;20500;-77
2023/09/30 01:02:53;;;;;;;15.75;9.07;;;;;;;19.68;100.00;100557.00;5072394;28;20031;-77
2023/09/30 01:05:19;;;;;;;15.90;9.35;;;;;;;19.64;100.00;100550.75;5055482;28;20385;-77
2023/09/30 01:07:44;;;;;;;16.00;8.65;;;;;;;19.63;100.00;100554.97;5072076;28;20032;-77
2023/09/30 01:10:11;;;;;;;14.27;8.82;;;;;;;19.71;100.00;100547.22;5055241;28;20020;-79
2023/09/30 01:12:37;;;;;;;13.02;8.60;;;;;;;19.65;100.00;100547.31;5072417;28;20473;-78
2023/09/30 01:15:04;;;;;;;15.32;8.27;;;;;;;19.72;100.00;100564.06;5073387;28;20078;-77
2023/09/30 01:17:31;;;;;;;17.05;8.00;;;;;;;19.65;100.00;100555.22;5073421;28;20086;-78
2023/09/30 01:20:05;;;;;;;13.02;8.35;;;;;;;19.73;100.00;100571.41;5071117;28;20036;-78
2023/09/30 01:22:33;;;;;;;15.35;8.43;;;;;;;19.75;100.00;100573.78;5072098;28;20032;-79
2023/09/30 01:25:00;;;;;;;12.68;10.38;;;;;;;19.77;100.00;100571.88;5055262;28;20377;-80
2023/09/30 01:27:27;;;;;;;10.50;8.82;;;;;;;19.80;100.00;100570.78;5071930;28;20477;-79
2023/09/30 01:29:52;;;;;;;14.52;8.57;;;;;;;19.70;100.00;100558.03;5073701;28;20124;-79
2023/09/30 01:32:17;;;;;;;15.63;8.60;;;;;;;19.69;100.00;100552.78;5073446;28;20050;-79
2023/09/30 01:34:44;;;;;;;12.90;8.18;;;;;;;19.78;100.00;100558.16;5073162;28;20036;-78
2023/09/30 01:37:10;;;;;;;14.95;8.90;;;;;;;19.82;100.00;100567.31;5072240;28;20024;-79
2023/09/30 01:39:36;;;;;;;16.52;8.43;;;;;;;19.76;100.00;100552.13;5072350;28;20059;-78
2023/09/30 01:42:02;;;;;;;9.45;7.57;;;;;;;19.93;100.00;100572.94;5073328;28;20384;-78
2023/09/30 01:44:28;;;;;;;10.18;7.75;;;;;;;19.92;100.00;100577.97;5055016;28;20460;-78
2023/09/30 01:46:55;;;;;;;13.48;8.05;;;;;;;19.92;100.00;100577.97;5073157;28;20027;-79
2023/09/30 01:49:24;;;;;;;13.80;9.40;;;;;;;19.93;100.00;100573.78;5076718;28;20047;-79
2023/09/30 01:51:50;;;;;;;14.63;8.55;;;;;;;19.95;100.00;100581.94;5077280;28;20100;-78
2023/09/30 01:54:18;;;;;;;9.55;7.80;;;;;;;19.93;100.00;100570.06;5088334;28;20032;-79
2023/09/30 01:56:43;;;;;;;16.38;8.50;;;;;;;20.01;100.00;100579.69;5100073;28;20384;-78
2023/09/30 01:59:10;;;;;;;11.25;6.90;;;;;;;19.94;100.00;100571.66;5098562;28;20031;-78
2023/09/30 02:01:35;;;;;;;11.80;8.18;;;;;;;20.02;100.00;100578.38;5078980;28;20131;-79
2023/09/30 02:04:03;;;;;;;10.85;7.30;;;;;;;20.05;100.00;100585.97;5097279;28;20453;-79
2023/09/30 02:06:28;;;;;;;14.10;7.53;;;;;;;20.08;100.00;100584.88;5097595;28;20031;-77
2023/09/30 02:08:55;;;;;;;13.80;8.02;;;;;;;20.10;100.00;100582.19;5097099;28;20107;-80
2023/09/30 02:11:21;;;;;;;8.40;6.88;;;;;;;20.14;100.00;100584.78;5096811;28;20024;-78
2023/09/30 02:13:47;;;;;;;13.48;7.95;;;;;;;20.16;100.00;100584.97;5097165;28;20559;-79
2023/09/30 02:16:14;;;;;;;14.20;7.93;;;;;;;20.18;100.00;100577.31;5096186;28;20044;-78
2023/09/30 02:18:56;;;;;;;11.27;7.28;;;;;;;20.20;100.00;100574.63;5078641;28;20081;-79
2023/09/30 02:21:22;;;;;;;13.63;7.45;;;;;;;20.17;100.00;100572.03;5078689;28;20023;-79
2023/09/30 02:23:48;;;;;;;8.98;6.43;;;;;;;20.23;100.00;100584.34;5096731;28;20480;-79
2023/09/30 02:26:15;;;;;;;13.38;6.60;;;;;;;20.25;100.00;100585.34;5096661;28;20342;-78
2023/09/30 02:28:40;;;;;;;11.13;8.13;;;;;;;20.25;100.00;100579.53;5061430;28;20032;-78
2023/09/30 02:31:07;;;;;;;16.73;6.40;;;;;;;20.25;100.00;100578.78;5096494;28;20055;-79
2023/09/30 02:33:35;;;;;;;9.90;5.90;;;;;;;20.27;100.00;100587.69;5096191;28;20032;-78
2023/09/30 02:36:05;;;;;;;11.15;5.82;;;;;;;20.30;100.00;100583.72;5078316;28;20162;-78
2023/09/30 02:38:31;;;;;;;6.78;5.47;;;;;;;20.31;100.00;100580.22;5078046;28;20024;-78
2023/09/30 02:40:58;;;;;;;20.45;6.50;;;;;;;20.32;100.00;100587.59;5095021;28;20035;-78
2023/09/30 02:43:24;;;;;;;14.27;5.30;;;;;;;20.36;100.00;100593.88;5061244;28;20486;-78
2023/09/30 02:45:50;;;;;;;8.18;5.25;;;;;;;20.38;100.00;100590.41;5060759;28;20115;-77
2023/09/30 02:48:15;;;;;;;18.58;6.50;;;;;;;20.40;100.00;100600.13;5095558;28;20099;-79
2023/09/30 02:50:44;;;;;;;8.73;5.65;;;;;;;20.42;100.00;100605.38;5078063;28;20491;-78
2023/09/30 02:53:12;;;;;;;9.80;6.15;;;;;;;20.45;100.00;100606.41;5095981;28;20070;-78
2023/09/30 02:55:38;;;;;;;9.68;5.80;;;;;;;20.42;100.00;100613.31;5095517;28;20489;-78
2023/09/30 02:58:03;;;;;;;6.78;5.70;;;;;;;20.40;100.00;100605.13;5077570;28;20058;-77
2023/09/30 03:00:32;;;;;;;11.50;5.95;;;;;;;20.42;100.00;100610.41;5076974;28;20016;-78
2023/09/30 03:02:59;;;;;;;8.25;5.72;;;;;;;20.42;100.00;100608.28;5078058;28;20077;-78
2023/09/30 03:05:25;;;;;;;8.88;5.75;;;;;;;20.42;100.00;100607.50;5077516;28;20119;-76
2023/09/30 03:07:52;;;;;;;11.23;5.47;;;;;;;20.42;100.00;100613.31;5075254;28;20109;-77
2023/09/30 03:10:20;;;;;;;10.00;5.82;;;;;;;20.40;100.00;100602.22;5077049;28;20036;-78
2023/09/30 03:12:48;;;;;;;10.43;5.95;;;;;;;20.40;100.00;100608.81;5078032;28;20172;-78
2023/09/30 03:15:15;;;;;;;8.50;5.53;;;;;;;20.38;100.00;100602.81;5094890;28;20030;-80
2023/09/30 03:17:41;;;;;;;7.43;5.40;;;;;;;20.40;100.00;100605.94;5043597;28;20499;-79
2023/09/30 03:20:11;;;;;;;10.68;5.70;;;;;;;20.40;100.00;100611.72;5094970;28;20461;-78
2023/09/30 03:22:46;;;;;;;8.27;5.78;;;;;;;20.40;100.00;100614.63;5077322;28;20031;-77
2023/09/30 03:25:12;;;;;;;12.43;5.78;;;;;;;20.38;100.00;100616.53;5061092;28;20020;-77
2023/09/30 03:27:38;;;;;;;13.55;5.90;;;;;;;20.19;100.00;100601.31;5077357;28;20500;-78
2023/09/30 03:30:05;;;;;;;11.10;6.25;;;;;;;20.25;100.00;100628.88;5095188;28;20040;-79
2023/09/30 03:32:33;;;;;;;8.50;5.60;;;;;;;20.13;100.00;100632.53;5094732;28;20030;-78
2023/09/30 03:35:00;;;;;;;11.40;5.35;;;;;;;20.05;100.00;100635.31;5095025;28;20012;-79
2023/09/30 03:37:27;;;;;;;12.05;6.32;;;;;;;19.95;100.00;100634.16;5094849;28;20016;-80
2023/09/30 03:39:55;;;;;;;9.38;6.28;;;;;;;19.85;100.00;100639.53;5060352;28;20052;-78
2023/09/30 03:42:45;;;;;;;14.65;5.95;;;;;;;19.74;100.00;100636.78;5095066;28;20031;-80
2023/09/30 03:45:12;;;;;;;8.65;5.78;;;;;;;19.64;100.00;100644.31;5094971;28;20444;-79
2023/09/30 03:47:47;;;;;;;11.32;6.15;;;;;;;19.59;100.00;100653.09;5076929;28;20108;-78
2023/09/30 03:50:14;;;;;;;14.93;6.53;;;;;;;19.52;100.00;100663.19;5077049;28;20030;-78
2023/09/30 03:52:44;;;;;;;10.57;6.65;;;;;;;19.46;100.00;100654.56;5094997;28;20028;-78
2023/09/30 03:55:15;;;;;;;13.10;6.30;;;;;;;19.45;100.00;100658.81;5072853;28;20127;-79
2023/09/30 03:57:42;;;;;;;17.25;6.43;;;;;;;19.43;100.00;100669.38;5073160;28;20397;-79
2023/09/30 04:00:11;;;;;;;8.00;5.45;;;;;;;19.39;100.00;100661.00;5074080;28;20032;-78
2023/09/30 04:02:38;;;;;;;11.52;5.53;;;;;;;19.43;100.00;100681.75;5074221;28;20046;-78
2023/09/30 04:05:05;;;;;;;10.80;6.22;;;;;;;19.48;100.00;100685.91;5073418;28;20025;-78
2023/09/30 04:07:33;;;;;;;11.00;5.93;;;;;;;19.51;100.00;100691.41;5074337;28;20032;-77
2023/09/30 04:10:01;;;;;;;10.32;5.55;;;;;;;19.58;100.00;100675.50;5074120;28;20021;-78
2023/09/30 04:12:28;;;;;;;11.55;5.38;;;;;;;19.60;100.00;100669.94;5073189;28;20023;-77
2023/09/30 04:14:54;;;;;;;9.50;5.45;;;;;;;19.54;100.00;100664.22;5073894;28;20477;-78
2023/09/30 04:17:23;;;;;;;11.40;5.82;;;;;;;19.50;100.00;100663.75;5073854;28;20036;-77
2023/09/30 04:19:51;;;;;;;9.73;5.45;;;;;;;19.64;100.00;100687.81;5074052;28;20043;-79
2023/09/30 04:22:17;;;;;;;10.25;5.38;;;;;;;19.66;100.00;100679.34;5080743;28;20021;-78
2023/09/30 04:24:42;;;;;;;9.13;5.75;;;;;;;19.70;100.00;100681.94;5062653;28;20101;-78
2023/09/30 04:27:08;;;;;;;9.25;5.55;;;;;;;19.73;100.00;100686.63;5096580;28;20013;-78
2023/09/30 04:29:34;;;;;;;9.10;5.13;;;;;;;19.76;100.00;100680.50;5097238;28;20035;-77
2023/09/30 04:32:14;;;;;;;6.53;4.88;;;;;;;19.79;100.00;100690.25;5076428;28;20376;-78
2023/09/30 04:34:40;;;;;;;9.48;5.22;;;;;;;19.66;100.00;100690.19;5073506;28;20043;-78
2023/09/30 04:37:09;;;;;;;14.30;6.18;;;;;;;19.66;100.00;100702.53;5074637;28;20131;-79
2023/09/30 04:39:39;;;;;;;11.32;5.90;;;;;;;19.53;100.00;100705.34;5074117;28;20042;-79
2023/09/30 04:42:05;;;;;;;7.63;5.45;;;;;;;19.43;100.00;100699.16;5072156;28;20323;-78
2023/09/30 04:44:31;;;;;;;11.95;7.03;;;;;;;19.33;100.00;100695.06;5073339;28;20553;-78
2023/09/30 04:46:58;;;;;;;10.48;6.15;;;;;;;19.42;100.00;100714.19;5072501;28;20040;-78
2023/09/30 04:49:24;;;;;;;10.88;6.10;;;;;;;19.41;100.00;100722.09;5072350;28;20032;-79
2023/09/30 04:51:52;;;;;;;10.70;5.63;;;;;;;19.40;100.00;100728.44;5072362;28;20112;-78
2023/09/30 04:54:20;;;;;;;10.38;5.80;;;;;;;19.37;100.00;100736.09;5082531;28;20131;-78
2023/09/30 04:56:47;;;;;;;13.57;6.00;;;;;;;19.36;100.00;100727.97;5093879;28;20016;-78
2023/09/30 04:59:13;;;;;;;10.80;5.25;;;;;;;19.36;100.00;100730.88;5093657;28;20406;-78
2023/09/30 05:01:39;;;;;;;9.18;5.43;;;;;;;19.36;100.00;100739.56;5076288;28;20039;-77
2023/09/30 05:04:04;;;;;;;8.70;5.45;;;;;;;19.33;100.00;100731.94;5093722;28;20380;-79
2023/09/30 05:06:32;;;;;;;9.15;6.00;;;;;;;19.34;100.00;100745.13;5058786;28;20111;-78
2023/09/30 05:08:58;;;;;;;11.38;6.22;;;;;;;19.27;100.00;100742.81;5093871;28;20035;-78
2023/09/30 05:11:24;;;;;;;8.45;5.15;;;;;;;19.30;100.00;100754.13;5075653;28;20396;-77
2023/09/30 05:13:50;;;;;;;16.27;5.97;;;;;;;19.23;100.00;100760.50;5092762;28;20028;-78
2023/09/30 05:16:18;;;;;;;10.70;5.93;;;;;;;19.22;100.00;100753.13;5093798;28;20024;-78
2023/09/30 05:18:43;;;;;;;14.02;5.97;;;;;;;19.18;100.00;100752.66;5075818;28;20027;-78
2023/09/30 05:21:10;;;;;;;12.05;6.30;;;;;;;19.18;100.00;100758.44;5093813;28;20038;-79
2023/09/30 05:23:37;;;;;;;9.30;5.60;;;;;;;19.18;100.00;100764.25;5094622;28;20032;-77
2023/09/30 05:26:04;;;;;;;8.98;4.85;;;;;;;19.11;100.00;100756.94;5097568;28;20461;-79
2023/09/30 05:28:31;;;;;;;10.32;5.32;;;;;;;19.23;100.00;100780.00;5098076;28;20028;-79
2023/09/30 05:30:57;;;;;;;8.10;5.75;;;;;;;19.24;100.00;100778.69;5097741;28;20414;-80
2023/09/30 05:33:22;;;;;;;12.13;5.57;;;;;;;19.13;100.00;100770.84;5097391;28;20048;-78
2023/09/30 05:35:49;;;;;;;10.07;5.57;;;;;;;19.29;100.00;100784.44;5097784;28;20016;-79
2023/09/30 05:38:19;;;;;;;12.05;5.50;;;;;;;19.31;100.00;100787.56;5097542;28;20461;-81
2023/09/30 05:40:48;;;;;;;11.30;5.60;;;;;;;19.33;100.00;100793.59;5097788;28;20052;-79
2023/09/30 05:43:16;;;;;;;16.88;5.47;;;;;;;19.23;100.00;100783.69;5079926;28;20066;-78
2023/09/30 05:45:56;;;;;;;11.70;5.35;;;;;;;19.38;100.00;100807.25;5097214;28;20043;-77
2023/09/30 05:48:30;;;;;;;9.00;5.43;;;;;;;19.40;100.00;100812.50;5098834;28;20111;-79
2023/09/30 05:50:56;;;;;;;9.40;5.80;;;;;;;19.40;100.00;100807.50;5081356;28;20074;-80
2023/09/30 05:53:24;;;;;;;9.90;5.45;;;;;;;19.42;100.00;100799.03;5062989;28;20078;-77
2023/09/30 05:55:50;;;;;;;14.15;5.60;;;;;;;19.43;100.00;100797.72;5097499;28;20016;-78
2023/09/30 05:58:16;;;;;;;16.70;6.45;;;;;;;19.66;100.00;100809.06;5079408;28;20593;-77
2023/09/30 06:00:44;;;;;;;14.35;5.65;;;;;;;19.95;100.00;100802.41;5097646;28;20027;-79
2023/09/30 06:03:12;;;;;;;6.82;4.60;;;;;;;20.27;100.00;100794.56;5078972;28;20027;-77
2023/09/30 06:05:41;;;;;;;8.15;4.32;;;;;;;20.42;100.00;100784.59;5079752;28;20024;-77
2023/09/30 06:08:10;;;;;;;7.95;4.45;;;;;;;20.49;100.00;100792.69;5079411;28;20063;-79
2023/09/30 06:10:38;;;;;;;8.98;4.40;;;;;;;20.46;100.00;100803.28;5079631;28;20042;-78
2023/09/30 06:13:04;;;;;;;7.53;4.10;;;;;;;20.36;100.00;100802.09;5046391;28;20105;-79
2023/09/30 06:15:31;;;;;;;8.55;3.85;;;;;;;20.30;100.00;100815.94;5078704;28;20397;-80
2023/09/30 06:17:59;;;;;;;12.68;4.22;;;;;;;20.28;100.00;100821.50;5079403;28;20475;-78
2023/09/30 06:20:30;;;;;;;7.95;4.07;;;;;;;20.21;100.00;100827.91;5098006;28;20043;-79
2023/09/30 06:22:56;;;;;;;7.60;3.47;;;;;;;20.05;100.00;100823.91;5097275;28;20031;-78
2023/09/30 06:25:27;;;;;;;5.07;3.13;;;;;;;20.03;100.00;100843.19;5096957;28;20052;-79
2023/09/30 06:27:55;;;;;;;9.30;3.40;;;;;;;19.90;100.00;100846.75;5096887;28;20574;-78
2023/09/30 06:30:21;;;;;;;7.55;3.20;;;;;;;19.76;100.00;100842.94;5096766;28;20280;-81
2023/09/30 06:32:48;;;;;;;5.45;2.90;;;;;;;19.56;100.00;100842.66;5098526;28;20388;-77
2023/09/30 06:35:14;;;;;;;7.65;2.30;;;;;;;19.63;100.00;100865.25;5096488;28;20035;-79
2023/09/30 06:37:41;;;;;;;3.38;2.10;;;;;;;19.58;100.00;100883.47;5079087;28;20081;-79
2023/09/30 06:40:11;;;;;;;5.93;2.10;;;;;;;19.45;100.00;100893.63;5096656;28;20488;-79
2023/09/30 06:42:39;;;;;;;7.25;2.22;;;;;;;19.34;100.00;100892.94;5096377;28;20020;-79
2023/09/30 06:45:07;;;;;;;3.38;1.70;;;;;;;19.18;100.00;100900.44;5096525;28;20021;-77
2023/09/30 06:47:33;;;;;;;4.07;1.90;;;;;;;18.95;100.00;100885.31;5096703;28;20024;-78
2023/09/30 06:50:17;;;;;;;6.88;2.15;;;;;;;18.82;100.00;100893.81;5061743;28;20028;-79
2023/09/30 06:52:49;;;;;;;5.88;2.50;;;;;;;18.77;100.00;100922.84;5096673;28;20032;-79
2023/09/30 06:55:19;;;;;;;8.18;2.60;;;;;;;18.75;100.00;100922.56;5096904;28;20322;-79
2023/09/30 06:57:45;;;;;;;12.55;3.67;;;;;;;18.66;100.00;100917.88;5078414;28;20027;-78
2023/09/30 07:00:13;;;;;;;7.90;3.10;;;;;;;18.66;100.00;100927.38;5096524;28;20046;-79
2023/09/30 07:02:41;;;;;;;8.38;3.67;;;;;;;18.65;100.00;100930.78;5077900;28;20028;-79
2023/09/30 07:05:14;;;;;;;5.20;3.58;;;;;;;18.64;100.00;100935.00;5077696;28;20024;-78
2023/09/30 07:07:40;;;;;;;4.45;3.55;;;;;;;18.60;100.00;100941.09;5077742;28;20028;-79
2023/09/30 07:10:07;;;;;;;4.93;3.70;;;;;;;18.58;100.00;100949.50;5076219;28;20054;-79
2023/09/30 07:12:35;;;;;;;5.70;4.15;;;;;;;18.57;100.00;100947.16;5078009;28;20020;-78
2023/09/30 07:15:02;;;;;;;5.40;3.90;;;;;;;18.55;100.00;100946.91;5061251;28;20098;-78
2023/09/30 07:17:30;;;;;;;7.05;3.63;;;;;;;18.47;100.00;100949.56;5077705;28;20476;-79
2023/09/30 07:19:55;;;;;;;6.25;4.40;;;;;;;18.46;100.00;100959.56;5096150;28;20028;-79
2023/09/30 07:22:20;;;;;;;6.85;3.60;;;;;;;18.45;100.00;100974.56;5076664;28;20496;-77
2023/09/30 07:24:47;;;;;;;9.43;4.55;;;;;;;18.35;100.00;100961.72;5095272;28;20039;-79
2023/09/30 07:27:13;;;;;;;4.70;3.70;;;;;;;18.40;100.00;100978.25;5077678;28;20055;-79
2023/09/30 07:29:39;;;;;;;8.02;3.72;;;;;;;18.36;100.00;100980.66;5077427;28;20473;-78
2023/09/30 07:32:08;;;;;;;9.57;3.70;;;;;;;18.39;100.00;100989.06;5095932;28;20020;-77
2023/09/30 07:34:33;;;;;;;9.50;4.00;;;;;;;18.38;100.00;101004.84;5061199;28;20028;-77
2023/09/30 07:36:59;;;;;;;6.57;3.38;;;;;;;18.35;100.00;100996.44;5077254;28;20032;-78
2023/09/30 07:39:26;;;;;;;5.63;3.67;;;;;;;18.35;100.00;101008.81;5079095;28;20464;-78
2023/09/30 07:41:54;;;;;;;7.45;3.00;;;;;;;18.38;100.00;101016.41;5095263;28;20036;-78
2023/09/30 07:44:20;;;;;;;8.65;2.33;;;;;;;18.34;100.00;101018.78;5095501;28;20107;-78
2023/09/30 07:46:46;;;;;;;5.68;2.00;;;;;;;18.27;100.00;101017.22;5094480;28;20059;-78
2023/09/30 07:49:13;;;;;;;7.05;2.10;;;;;;;18.06;100.00;100997.78;5077332;28;20027;-77
2023/09/30 07:51:42;;;;;;;7.35;2.20;;;;;;;18.00;100.00;101014.38;5095401;28;20067;-78
2023/09/30 07:54:08;;;;;;;4.88;2.10;;;;;;;17.96;100.00;101016.75;5095064;28;20044;-80
2023/09/30 07:56:34;;;;;;;5.82;2.20;;;;;;;18.01;100.00;101010.16;5095321;28;20024;-79
2023/09/30 07:59:02;;;;;;;7.07;2.10;;;;;;;18.12;100.00;101007.25;5095456;28;20518;-77
2023/09/30 08:01:28;;;;;;;5.10;2.10;;;;;;;18.23;100.00;101010.09;5060771;28;20035;-78
2023/09/30 08:03:55;;;;;;;5.47;2.20;;;;;;;18.35;100.00;101008.00;5094401;28;20087;-78
2023/09/30 08:06:35;;;;;;;8.57;1.98;;;;;;;18.41;100.00;100985.63;5095083;28;20039;-77
2023/09/30 08:09:03;;;;;;;6.25;1.75;;;;;;;18.73;100.00;101007.06;5076801;28;20077;-78
2023/09/30 08:11:32;;;;;;;5.22;1.80;;;;;;;18.93;100.00;101003.03;5076973;28;20046;-78
2023/09/30 08:13:58;;;;;;;10.18;1.75;;;;;;;19.20;100.00;101010.81;5094870;28;20058;-79
2023/09/30 08:16:25;;;;;;;5.45;1.88;;;;;;;19.75;100.00;101015.41;5076710;28;20036;-80
2023/09/30 08:18:51;;;;;;;8.05;1.63;;;;;;;20.59;100.00;101023.28;5095215;28;20038;-77
2023/09/30 08:21:18;;;;;;;3.85;1.60;;;;;;;21.51;100.00;101038.44;5092861;28;20036;-79
2023/09/30 08:23:45;;;;;;;2.42;1.40;;;;;;;22.26;100.00;101029.53;5077221;28;20038;-79
2023/09/30 08:26:11;;;;;;;5.93;1.90;;;;;;;22.84;100.00;101027.28;5095043;28;20043;-79
2023/09/30 08:28:37;;;;;;;3.72;1.55;;;;;;;23.33;100.00;101021.72;5095024;28;20486;-79
2023/09/30 08:31:04;;;;;;;4.47;1.65;;;;;;;23.91;100.00;101022.72;5094795;28;20513;-77
2023/09/30 08:33:30;;;;;;;5.00;1.75;;;;;;;24.54;100.00;101021.31;5095416;28;20136;-79
2023/09/30 08:36:17;;;;;;;2.88;1.52;;;;;;;24.98;100.00;101025.88;5094834;28;20021;-76
2023/09/30 08:38:43;;;;;;;6.25;1.75;;;;;;;25.34;100.00;101031.66;5102235;28;20036;-79
2023/09/30 08:41:10;;;;;;;5.30;2.08;;;;;;;25.35;100.00;101030.31;5100251;28;20150;-79
2023/09/30 08:43:40;;;;;;;7.28;1.70;;;;;;;25.25;100.00;101040.19;5098076;28;20153;-79
2023/09/30 08:46:07;;;;;;;9.15;2.05;;;;;;;24.95;100.00;101056.25;5060658;28;20035;-78
2023/09/30 08:48:33;;;;;;;9.65;2.10;;;;;;;24.59;100.00;101046.69;5094327;28;20426;-77
2023/09/30 08:51:14;;;;;;;4.55;1.80;;;;;;;24.18;100.00;101065.03;5094149;28;20114;-77
2023/09/30 08:53:42;;;;;;;7.35;1.98;;;;;;;23.63;100.00;101064.28;5073114;28;20048;-78
2023/09/30 08:56:10;;;;;;;4.05;1.70;;;;;;;23.32;100.00;101051.44;5074088;28;20020;-77
2023/09/30 08:58:37;;;;;;;7.38;3.15;;;;;;;23.15;100.00;101068.53;5055853;28;20488;-78
2023/09/30 09:01:09;;;;;;;5.65;2.05;;;;;;;22.81;100.00;101057.56;5073010;28;20025;-79
2023/09/30 09:03:36;;;;;;;6.95;2.08;;;;;;;22.76;100.00;101078.09;5073154;28;20039;-78
2023/09/30 09:06:02;;;;;;;6.65;1.95;;;;;;;22.67;100.00;101081.44;5074324;28;20381;-76
2023/09/30 09:08:29;;;;;;;10.32;2.03;;;;;;;22.76;100.00;101093.44;5073603;28;20056;-78
2023/09/30 09:11:00;;;;;;;8.27;2.15;;;;;;;22.90;100.00;101086.28;5074072;28;20029;-77
2023/09/30 09:13:27;;;;;;;7.43;1.65;;;;;;;23.05;100.00;101094.47;5072648;28;20028;-79
2023/09/30 09:16:09;;;;;;;4.90;1.90;;;;;;;23.04;100.00;101100.84;5072543;28;20040;-81
2023/09/30 09:18:36;;;;;;;9.68;2.30;;;;;;;22.90;100.00;101100.09;5073783;28;20028;-79
2023/09/30 09:21:34;;;;;;;7.82;2.25;;;;;;;22.84;100.00;101108.91;5073586;28;20032;-79
2023/09/30 09:24:01;;;;;;;7.38;1.92;;;;;;;22.89;100.00;101099.28;5012615;28;20036;-77
2023/09/30 09:26:34;;;;;;;5.07;1.38;;;;;;;23.00;100.00;101092.47;5056145;28;20115;-78
2023/09/30 09:29:04;;;;;;;3.47;1.80;;;;;;;23.02;100.00;101091.88;5073702;28;20242;-79
2023/09/30 09:31:35;;;;;;;5.30;1.98;;;;;;;23.07;100.00;101103.41;5074148;28;20028;-79
2023/09/30 09:34:03;;;;;;;6.28;1.73;;;;;;;22.99;100.00;101101.75;5074004;28;20032;-78
2023/09/30 09:36:43;;;;;;;7.93;1.92;;;;;;;22.92;100.00;101104.00;5072724;28;20032;-79
2023/09/30 09:39:15;;;;;;;12.60;1.92;;;;;;;22.82;100.00;101105.75;5074054;28;20051;-78
2023/09/30 09:41:53;;;;;;;6.32;1.80;;;;;;;22.75;100.00;101112.28;5075556;28;20035;-77
2023/09/30 09:44:23;;;;;;;10.50;3.10;;;;;;;22.59;100.00;101116.28;5056555;28;20047;-79
2023/09/30 09:46:51;;;;;;;4.27;2.07;;;;;;;22.43;100.00;101106.50;5072758;28;20117;-79
2023/09/30 09:49:19;;;;;;;8.38;2.08;;;;;;;22.26;100.00;101111.84;5055479;28;20126;-79
2023/09/30 09:51:46;;;;;;;5.80;1.70;;;;;;;22.22;100.00;101119.34;5072156;28;20200;-79
2023/09/30 09:54:17;;;;;;;5.18;1.60;;;;;;;22.28;100.00;101117.91;5038651;28;20122;-77
2023/09/30 09:56:45;;;;;;;7.03;1.90;;;;;;;22.16;100.00;101124.44;5073884;28;20029;-80
2023/09/30 09:59:13;;;;;;;4.75;1.83;;;;;;;22.03;100.00;101119.34;5073409;28;20028;-80
2023/09/30 10:01:42;;;;;;;5.45;1.58;;;;;;;22.01;100.00;101119.13;5073215;28;20028;-79
2023/09/30 10:04:08;;;;;;;5.60;1.70;;;;;;;21.96;100.00;101114.97;5072202;28;20032;-79
2023/09/30 10:06:43;;;;;;;6.72;1.80;;;;;;;21.94;100.00;101108.13;5072426;28;20031;-79
2023/09/30 10:09:11;;;;;;;9.93;2.42;;;;;;;21.89;100.00;101118.53;5073427;28;20465;-80
2023/09/30 10:11:40;;;;;;;10.00;2.25;;;;;;;21.71;100.00;101084.44;5041675;28;20036;-80
2023/09/30 10:14:11;;;;;;;9.68;1.70;;;;;;;21.84;100.00;101106.97;5077890;28;20419;-78
2023/09/30 10:16:42;;;;;;;6.15;2.08;;;;;;;21.78;100.00;101103.38;5076625;28;20047;-79
2023/09/30 10:19:15;;;;;;;6.18;1.73;;;;;;;21.65;100.00;101101.19;5075441;28;20032;-80
2023/09/30 10:22:19;;;;;;;9.48;1.70;;;;;;;21.56;100.00;101090.72;5076707;28;20036;-79
2023/09/30 10:25:00;;;;;;;7.63;2.08;;;;;;;21.55;100.00;101091.28;5071455;28;20394;-79
2023/09/30 10:27:34;;;;;;;11.48;2.22;;;;;;;21.62;100.00;101094.34;5076351;28;20043;-80
2023/09/30 10:30:10;;;;;;;5.43;1.83;;;;;;;21.65;100.00;101104.09;5076486;28;20043;-79
2023/09/30 10:33:04;;;;;;;5.47;1.55;;;;;;;21.68;100.00;101097.19;5076215;28;20032;-81
2023/09/30 10:35:33;;;;;;;8.25;1.70;;;;;;;21.72;100.00;101111.41;5076039;28;20035;-80
2023/09/30 10:38:24;;;;;;;6.40;1.70;;;;;;;21.72;100.00;101114.31;5076230;28;20032;-80
2023/09/30 10:40:51;;;;;;;;;;;;;;;21.62;100.00;101120.53;5076847;28;20036;-79
2023/09/30 10:43:40;;;;;;;4.85;1.58;;;;;;;21.53;100.00;101123.06;5076093;28;20418;-78
2023/09/30 10:46:29;;;;;;;9.73;1.90;;;;;;;21.49;100.00;101122.56;5075927;28;20029;-79
2023/09/30 10:48:57;;;;;;;7.10;1.88;;;;;;;21.51;100.00;101126.50;5066296;28;20485;-80
2023/09/30 10:51:23;;;;;;;8.57;2.13;;;;;;;21.49;100.00;101131.28;5074525;28;20043;-79
2023/09/30 10:53:59;;;;;;;10.85;1.88;;;;;;;21.50;100.00;101124.13;5074166;28;20049;-78
2023/09/30 10:56:32;;;;;;;11.93;2.15;;;;;;;21.47;100.00;101123.13;5075454;28;20023;-78
2023/09/30 10:59:01;;;;;;;5.72;2.20;;;;;;;21.35;100.00;101107.13;5057456;28;20440;-78
2023/09/30 11:01:35;;;;;;;8.43;2.40;;;;;;;21.29;100.00;101115.13;5058035;28;20032;-78
2023/09/30 11:04:04;;;;;;;9.23;2.08;;;;;;;21.17;100.00;101105.78;5075554;28;20056;-78
2023/09/30 11:06:31;;;;;;;7.22;2.25;;;;;;;21.29;100.00;101132.56;5074303;28;20055;-78
2023/09/30 11:09:00;;;;;;;11.20;2.38;;;;;;;21.40;100.00;101134.56;5074378;28;20107;-78
2023/09/30 11:11:52;;;;;;;4.93;2.15;;;;;;;21.49;100.00;101134.97;5074084;28;20032;-79
2023/09/30 11:14:25;;;;;;;7.57;2.83;;;;;;;21.61;100.00;101139.31;5075659;28;20020;-78
2023/09/30 11:16:53;;;;;;;7.10;1.92;;;;;;;21.66;100.00;101137.66;5075370;28;20024;-78
2023/09/30 11:19:22;;;;;;;7.25;1.55;;;;;;;21.65;100.00;101130.28;5074041;28;20485;-78
2023/09/30 11:21:50;;;;;;;7.35;2.20;;;;;;;21.65;100.00;101124.44;5057612;28;20458;-79